Latest Coastal Weather Observations for Wadeye (Port Keats)

IDD60701

Issued at 9:15 pm CST Friday 1 August 2014 (issued every 10 minutes, with the page automatically refreshed every 10 minutes)

About coastal observations | Map of coastal stations | Coastal observations for NT | Marine services | Other Formats
Station Details ID: 014948 Name: PORT KEATS AIRPORT Lat: -14.25 Lon: 129.53 Height: 28.0 m
Data from the previous 72 hours. | See also: Recent months at Wadeye (Port Keats)
Date/Time
CST
Temp

°C
Wind Pressure Rain
since 9am
mm
Weather Cloud Vis
km
Sea
Height
m
Swell
Dir
 
Speed
knots
Gust
knots
hPa Trend Height
m
Period
s
Dir
01/09:00pm 23.9 SSW 0 0 1013.3 - 0.0 - - - - - - -
01/08:30pm 24.3 CALM 0 0 1013.4 - 0.0 - - - - - - -
01/08:00pm 24.6 SW 3 4 1013.0 - 0.0 - - - - - - -
01/07:30pm 25.0 WSW 2 4 1012.6 - 0.0 - - - - - - -
01/07:00pm 25.6 W 2 4 1012.3 - 0.0 - - - - - - -
01/06:30pm 26.3 WSW 4 7 1012.2 - 0.0 - - - - - - -
01/06:00pm 27.1 WNW 6 9 1011.8 - 0.0 - - - - - - -
01/05:30pm 28.1 W 6 9 1011.8 - 0.0 - - - - - - -
01/05:00pm 28.8 WNW 7 10 1011.6 - 0.0 - - - - - - -
01/04:30pm 29.2 NW 8 11 1011.6 - 0.0 - - - - - - -
01/04:00pm 29.2 NW 9 14 1011.6 - 0.0 - - - - - - -
01/03:30pm 29.7 NW 9 12 1011.9 - 0.0 - - - - - - -
01/03:00pm 30.3 NNW 10 14 1011.9 - 0.0 - - - - - - -
01/02:30pm 30.6 N 10 16 1012.5 - 0.0 - - - - - - -
01/02:00pm 30.5 N 9 13 1013.0 - 0.0 - - - - - - -
01/01:30pm 30.4 N 9 12 1013.7 - 0.0 - - - - - - -
01/01:00pm 29.7 N 10 14 1014.0 - 0.0 - - - - - - -
01/12:30pm 30.2 N 10 14 1014.2 - 0.0 - - - - - - -
01/12:00pm 29.5 N 10 13 1014.4 - 0.0 - - - - - - -
01/11:30am 29.4 N 8 14 1014.9 - 0.0 - - - - - - -
01/11:00am 28.2 NNE 10 14 1015.2 - 0.0 - - - - - - -
01/10:30am 27.8 NE 11 14 1015.4 - 0.0 - - - - - - -
01/10:00am 27.2 ENE 8 13 1015.4 - 0.0 - - - - - - -
01/09:30am 25.8 E 7 10 1015.5 - 0.0 - - - - - - -
01/09:00am 24.3 E 6 10 1015.2 - 0.0 - - - - - - -
01/08:30am 21.4 NNE 5 7 1015.2 - 0.0 - - - - - - -
01/08:00am 23.6 ESE 6 9 1014.6 - 0.0 - - - - - - -
01/07:50am 22.2 SE 5 8 1014.4 - 0.0 - - - - - - -
01/07:30am 17.0 CALM 0 2 1014.2 - 0.0 - - - - - - -
01/07:00am 17.8 S 2 4 1013.9 - 0.0 - - - - - - -
01/06:30am 19.1 ESE 3 4 1013.8 - 0.0 - - - - - - -
01/06:00am 19.0 NE 5 6 1013.4 - 0.0 - - - - - - -
01/05:30am 19.0 CALM 0 0 1013.3 - 0.0 - - - - - - -
01/05:00am 18.8 CALM 0 0 1013.1 - 0.0 - - - - - - -
01/04:30am 19.6 CALM 0 0 1013.0 - 0.0 - - - - - - -
01/04:00am 19.9 SSW 4 5 1012.8 - 0.0 - - - - - - -
01/03:30am 19.1 SSW 4 6 1012.7 - 0.0 - - - - - - -
01/03:00am 18.9 SSW 4 6 1012.6 - 0.0 - - - - - - -
01/02:30am 18.4 S 3 4 1013.0 - 0.0 - - - - - - -
01/02:00am 18.9 S 1 4 1013.2 - 0.0 - - - - - - -
01/01:30am 19.9 CALM 0 0 1013.6 - 0.0 - - - - - - -
01/01:00am 20.9 CALM 0 0 1013.8 - 0.0 - - - - - - -
01/12:30am 21.9 S 2 4 1013.7 - 0.0 - - - - - - -
01/12:00am 20.8 SSW 4 6 1013.4 - 0.0 - - - - - - -
 
Date/Time
CST
Temp

°C
Wind Pressure Rain
since 9am
mm
Weather Cloud Vis
km
Sea
Height
m
Swell
Dir
 
Speed
knots
Gust
knots
hPa Trend Height
m
Period
s
Dir
31/11:30pm 20.3 SSW 4 5 1013.5 - 0.0 - - - - - - -
31/11:00pm 20.9 SSE 4 5 1013.6 - 0.0 - - - - - - -
31/10:30pm 21.0 S 3 4 1013.4 - 0.0 - - - - - - -
31/10:00pm 21.3 CALM 0 0 1013.4 - 0.0 - - - - - - -
31/09:30pm 21.9 CALM 0 0 1013.4 - 0.0 - - - - - - -
31/09:00pm 22.4 CALM 0 0 1013.1 - 0.0 - - - - - - -
31/08:30pm 23.0 CALM 0 0 1012.9 - 0.0 - - - - - - -
31/08:00pm 23.9 SSW 1 4 1012.5 - 0.0 - - - - - - -
31/07:30pm 24.4 SW 4 5 1012.2 - 0.0 - - - - - - -
31/07:00pm 25.3 WSW 4 5 1012.2 - 0.0 - - - - - - -
31/06:30pm 26.4 W 5 7 1012.1 - 0.0 - - - - - - -
31/06:00pm 27.7 W 5 7 1011.7 - 0.0 - - - - - - -
31/05:30pm 29.0 W 6 8 1011.9 - 0.0 - - - - - - -
31/05:00pm 29.6 W 6 9 1011.9 - 0.0 - - - - - - -
31/04:30pm 30.1 W 6 11 1011.8 - 0.0 - - - - - - -
31/04:00pm 29.5 WNW 7 11 1012.0 - 0.0 - - - - - - -
31/03:30pm 29.7 WNW 7 11 1012.2 - 0.0 - - - - - - -
31/03:00pm 30.0 W 9 13 1012.3 - 0.0 - - - - - - -
31/02:30pm 31.0 NW 7 12 1013.1 - 0.0 - - - - - - -
31/02:00pm 31.0 NNW 6 9 1013.5 - 0.0 - - - - - - -
31/01:30pm 30.4 N 7 10 1014.0 - 0.0 - - - - - - -
31/01:00pm 30.3 N 7 10 1014.6 - 0.0 - - - - - - -
31/12:30pm 30.3 NNW 7 11 1014.9 - 0.0 - - - - - - -
31/12:00pm 30.0 N 6 9 1015.1 - 0.0 - - - - - - -
31/11:30am 29.4 NNE 7 13 1015.7 - 0.0 - - - - - - -
31/11:00am 29.2 ENE 6 8 1016.1 - 0.0 - - - - - - -
31/10:30am 29.0 NE 6 11 1016.4 - 0.0 - - - - - - -
31/10:00am 27.6 E 8 10 1016.3 - 0.0 - - - - - - -
31/09:30am 27.1 E 8 11 1016.2 - 0.0 - - - - - - -
31/09:00am 25.6 E 8 11 1015.8 - 0.0 - - - - - - -
31/08:30am 24.2 E 8 12 1015.8 - 0.0 - - - - - - -
31/08:26am 24.1 ESE 7 12 1015.7 - 0.0 - - - - - - -
31/08:00am 19.1 ESE 4 6 1015.6 - 0.0 - - - - - - -
31/07:30am 19.2 NE 3 4 1015.5 - 0.0 - - - - - - -
31/07:00am 17.4 E 3 4 1015.0 - 0.0 - - - - - - -
31/06:30am 19.9 E 4 6 1014.7 - 0.0 - - - - - - -
31/06:00am 17.5 SE 1 4 1014.1 - 0.0 - - - - - - -
31/05:30am 19.6 ESE 4 5 1014.1 - 0.0 - - - - - - -
31/05:00am 18.9 ESE 1 3 1014.1 - 0.0 - - - - - - -
31/04:30am 18.2 SSE 4 4 1013.9 - 0.0 - - - - - - -
31/04:00am 18.8 SE 3 3 1014.1 - 0.0 - - - - - - -
31/03:30am 20.1 CALM 0 1 1014.2 - 0.0 - - - - - - -
31/03:00am 20.3 E 4 5 1014.1 - 0.0 - - - - - - -
31/02:30am 20.3 ENE 4 5 1014.4 - 0.0 - - - - - - -
31/02:00am 20.8 NE 5 9 1014.4 - 0.0 - - - - - - -
31/01:30am 21.7 S 3 5 1014.2 - 0.0 - - - - - - -
31/01:00am 21.8 SSW 4 6 1014.4 - 0.0 - - - - - - -
31/12:30am 21.5 SSW 5 6 1014.6 - 0.0 - - - - - - -
31/12:00am 21.4 SSW 3 5 1014.3 - 0.0 - - - - - - -
 
Date/Time
CST
Temp

°C
Wind Pressure Rain
since 9am
mm
Weather Cloud Vis
km
Sea
Height
m
Swell
Dir
 
Speed
knots
Gust
knots
hPa Trend Height
m
Period
s
Dir
30/11:30pm 21.6 SSW 4 5 1014.6 - 0.0 - - - - - - -
30/11:00pm 21.6 SSW 3 6 1014.8 - 0.0 - - - - - - -
30/10:30pm 21.7 CALM 0 0 1014.9 - 0.0 - - - - - - -
30/10:00pm 22.7 CALM 0 0 1014.7 - 0.0 - - - - - - -
30/09:30pm 22.5 SW 3 4 1014.5 - 0.0 - - - - - - -
30/09:00pm 22.9 SW 3 5 1014.2 - 0.0 - - - - - - -
30/08:30pm 23.1 SW 4 5 1014.3 - 0.0 - - - - - - -
30/08:00pm 24.0 SW 3 4 1013.9 - 0.0 - - - - - - -
30/07:30pm 24.7 SW 4 6 1013.5 - 0.0 - - - - - - -
30/07:00pm 25.4 SW 5 7 1013.3 - 0.0 - - - - - - -
30/06:30pm 26.4 SW 5 8 1013.1 - 0.0 - - - - - - -
30/06:00pm 27.6 W 6 9 1012.8 - 0.0 - - - - - - -
30/05:30pm 28.2 W 7 10 1012.7 - 0.0 - - - - - - -
30/05:00pm 28.7 W 8 11 1012.6 - 0.0 - - - - - - -
30/04:30pm 29.2 WSW 9 13 1012.5 - 0.0 - - - - - - -
30/04:00pm 29.2 W 8 11 1012.5 - 0.0 - - - - - - -
30/03:30pm 29.7 W 8 11 1012.8 - 0.0 - - - - - - -
30/03:00pm 29.5 W 9 13 1012.9 - 0.0 - - - - - - -
30/02:30pm 32.1 ESE 5 9 1013.2 - 0.0 - - - - - - -
30/02:00pm 32.7 ESE 11 15 1013.6 - 0.0 - - - - - - -
30/01:30pm 31.9 E 6 10 1014.1 - 0.0 - - - - - - -
30/01:00pm 31.6 E 9 14 1014.7 - 0.0 - - - - - - -
30/12:30pm 30.7 ESE 7 11 1015.2 - 0.0 - - - - - - -
30/12:00pm 30.4 NE 7 11 1015.5 - 0.0 - - - - - - -
30/11:30am 30.2 NE 8 13 1016.1 - 0.0 - - - - - - -
30/11:00am 28.9 E 6 9 1016.7 - 0.0 - - - - - - -
30/10:30am 28.4 E 5 9 1017.1 - 0.0 - - - - - - -
30/10:00am 28.0 E 6 9 1017.2 - 0.0 - - - - - - -
30/09:30am 27.0 E 5 7 1017.1 - 0.0 - - - - - - -
30/09:00am 25.4 E 4 6 1016.7 - - - - - - - - -
30/08:30am 24.2 E 4 6 1016.6 - - - - - - - - -
30/08:23am 23.8 E 4 6 1016.6 - - - - - - - - -
30/08:00am 18.8 CALM 0 3 1016.3 - - - - - - - - -
30/07:30am 17.9 NE 1 3 1016.0 - - - - - - - - -
30/07:00am 17.9 CALM 0 0 1015.7 - - - - - - - - -
30/06:30am 18.0 CALM 0 0 1015.5 - - - - - - - - -
30/06:00am 18.6 CALM 0 0 1015.1 - - - - - - - - -
30/05:30am 18.8 CALM 0 0 1015.2 - - - - - - - - -
30/05:00am 19.4 CALM 0 0 1014.9 - - - - - - - - -
30/04:30am 21.8 SSE 4 6 1014.7 - - - - - - - - -
30/04:00am 19.6 S 3 5 1014.5 - - - - - - - - -
30/03:30am 20.2 SSE 5 5 1014.3 - - - - - - - - -
30/03:00am 20.8 NNE 4 5 1014.2 - - - - - - - - -
30/02:30am 19.3 SSE 4 5 1014.2 - - - - - - - - -
30/02:00am 19.4 SSE 4 5 1014.4 - - - - - - - - -
30/01:30am 19.3 S 4 5 1014.6 - - - - - - - - -
30/01:00am 19.6 CALM 0 0 1014.9 - - - - - - - - -
30/12:30am 19.8 S 2 3 1014.9 - - - - - - - - -
30/12:00am 19.7 SSW 3 4 1014.8 - - - - - - - - -
 
Date/Time
CST
Temp

°C
Wind Pressure Rain
since 9am
mm
Weather Cloud Vis
km
Sea
Height
m
Swell
Dir
 
Speed
knots
Gust
knots
hPa Trend Height
m
Period
s
Dir
29/11:30pm 20.5 CALM 0 2 1014.9 - - - - - - - - -
29/11:00pm 20.7 SSW 2 3 1015.0 - - - - - - - - -
29/10:30pm 20.8 SSW 3 4 1015.0 - - - - - - - - -
29/10:00pm 21.3 S 3 4 1015.0 - - - - - - - - -
29/09:30pm 21.6 SSW 1 3 1014.9 - - - - - - - - -

Other Formats:

Comma delimited format used in spreadsheet applications
http://www.bom.gov.au/fwo/IDD60701/IDD60701.95111.axf

JavaScript Object Notation format (JSON) in row-major order
http://www.bom.gov.au/fwo/IDD60701/IDD60701.95111.json